sensor_id;sensor_type;location;lat;lon;timestamp;P1;durP1;ratioP1;P2;durP2;ratioP2
7931;SDS011;4011;49.424;10.894;2024-02-28T00:00:12;8.25;;;6.32;;
7931;SDS011;4011;49.424;10.894;2024-02-28T00:05:34;9.57;;;6.32;;
7931;SDS011;4011;49.424;10.894;2024-02-28T00:10:57;9.82;;;6.65;;
7931;SDS011;4011;49.424;10.894;2024-02-28T00:16:18;8.80;;;6.20;;
7931;SDS011;4011;49.424;10.894;2024-02-28T00:21:41;10.00;;;6.20;;
7931;SDS011;4011;49.424;10.894;2024-02-28T00:27:04;7.90;;;6.05;;
7931;SDS011;4011;49.424;10.894;2024-02-28T00:32:26;8.40;;;6.00;;
7931;SDS011;4011;49.424;10.894;2024-02-28T00:37:47;8.68;;;6.28;;
7931;SDS011;4011;49.424;10.894;2024-02-28T00:43:10;8.55;;;6.30;;
7931;SDS011;4011;49.424;10.894;2024-02-28T00:48:32;7.55;;;5.53;;
7931;SDS011;4011;49.424;10.894;2024-02-28T00:53:54;8.35;;;5.78;;
7931;SDS011;4011;49.424;10.894;2024-02-28T00:59:18;8.65;;;5.70;;
7931;SDS011;4011;49.424;10.894;2024-02-28T01:04:39;8.20;;;6.13;;
7931;SDS011;4011;49.424;10.894;2024-02-28T01:10:01;7.97;;;5.55;;
7931;SDS011;4011;49.424;10.894;2024-02-28T01:15:24;8.32;;;5.88;;
7931;SDS011;4011;49.424;10.894;2024-02-28T01:20:45;7.68;;;5.80;;
7931;SDS011;4011;49.424;10.894;2024-02-28T01:26:07;8.25;;;5.40;;
7931;SDS011;4011;49.424;10.894;2024-02-28T01:31:30;7.93;;;5.82;;
7931;SDS011;4011;49.424;10.894;2024-02-28T01:36:51;7.45;;;5.45;;
7931;SDS011;4011;49.424;10.894;2024-02-28T01:42:13;7.45;;;5.43;;
7931;SDS011;4011;49.424;10.894;2024-02-28T01:47:36;6.82;;;5.15;;
7931;SDS011;4011;49.424;10.894;2024-02-28T01:52:58;8.55;;;5.65;;
7931;SDS011;4011;49.424;10.894;2024-02-28T01:58:19;6.72;;;4.80;;
7931;SDS011;4011;49.424;10.894;2024-02-28T02:03:43;7.32;;;5.05;;
7931;SDS011;4011;49.424;10.894;2024-02-28T02:09:05;6.75;;;5.20;;
7931;SDS011;4011;49.424;10.894;2024-02-28T02:14:26;7.10;;;5.20;;
7931;SDS011;4011;49.424;10.894;2024-02-28T02:19:50;7.30;;;4.95;;
7931;SDS011;4011;49.424;10.894;2024-02-28T02:25:13;7.20;;;5.18;;
7931;SDS011;4011;49.424;10.894;2024-02-28T02:30:34;6.88;;;4.70;;
7931;SDS011;4011;49.424;10.894;2024-02-28T02:35:55;6.60;;;4.70;;
7931;SDS011;4011;49.424;10.894;2024-02-28T02:41:19;6.97;;;4.70;;
7931;SDS011;4011;49.424;10.894;2024-02-28T02:46:40;6.70;;;4.50;;
7931;SDS011;4011;49.424;10.894;2024-02-28T02:52:02;7.07;;;4.82;;
7931;SDS011;4011;49.424;10.894;2024-02-28T02:57:24;6.03;;;4.32;;
7931;SDS011;4011;49.424;10.894;2024-02-28T03:02:46;6.32;;;4.50;;
7931;SDS011;4011;49.424;10.894;2024-02-28T03:08:08;6.78;;;4.63;;
7931;SDS011;4011;49.424;10.894;2024-02-28T03:13:30;6.97;;;4.57;;
7931;SDS011;4011;49.424;10.894;2024-02-28T03:18:53;6.47;;;4.72;;
7931;SDS011;4011;49.424;10.894;2024-02-28T03:24:14;6.95;;;4.88;;
7931;SDS011;4011;49.424;10.894;2024-02-28T03:29:38;6.03;;;4.57;;
7931;SDS011;4011;49.424;10.894;2024-02-28T03:35:00;6.72;;;4.90;;
7931;SDS011;4011;49.424;10.894;2024-02-28T03:40:21;6.20;;;4.40;;
7931;SDS011;4011;49.424;10.894;2024-02-28T03:45:44;7.10;;;4.63;;
7931;SDS011;4011;49.424;10.894;2024-02-28T03:51:07;6.72;;;4.72;;
7931;SDS011;4011;49.424;10.894;2024-02-28T03:56:28;5.88;;;4.10;;
7931;SDS011;4011;49.424;10.894;2024-02-28T04:01:51;6.50;;;4.38;;
7931;SDS011;4011;49.424;10.894;2024-02-28T04:07:12;6.30;;;4.55;;
7931;SDS011;4011;49.424;10.894;2024-02-28T04:12:34;6.13;;;4.60;;
7931;SDS011;4011;49.424;10.894;2024-02-28T04:17:57;6.30;;;4.65;;
7931;SDS011;4011;49.424;10.894;2024-02-28T04:23:18;6.57;;;4.22;;
7931;SDS011;4011;49.424;10.894;2024-02-28T04:28:40;6.95;;;4.55;;
7931;SDS011;4011;49.424;10.894;2024-02-28T04:34:03;6.50;;;4.60;;
7931;SDS011;4011;49.424;10.894;2024-02-28T04:39:25;5.40;;;3.90;;
7931;SDS011;4011;49.424;10.894;2024-02-28T04:44:46;6.13;;;4.50;;
7931;SDS011;4011;49.424;10.894;2024-02-28T04:50:10;6.43;;;4.43;;
7931;SDS011;4011;49.424;10.894;2024-02-28T04:55:32;5.82;;;4.28;;
7931;SDS011;4011;49.424;10.894;2024-02-28T05:00:54;5.93;;;4.40;;
7931;SDS011;4011;49.424;10.894;2024-02-28T05:06:16;5.97;;;4.28;;
7931;SDS011;4011;49.424;10.894;2024-02-28T05:11:38;6.57;;;5.05;;
7931;SDS011;4011;49.424;10.894;2024-02-28T05:16:59;5.35;;;4.00;;
7931;SDS011;4011;49.424;10.894;2024-02-28T05:22:24;6.60;;;4.40;;
7931;SDS011;4011;49.424;10.894;2024-02-28T05:27:45;7.00;;;4.60;;
7931;SDS011;4011;49.424;10.894;2024-02-28T05:33:07;7.00;;;4.40;;
7931;SDS011;4011;49.424;10.894;2024-02-28T05:38:31;8.35;;;4.57;;
7931;SDS011;4011;49.424;10.894;2024-02-28T05:43:52;7.03;;;4.25;;
7931;SDS011;4011;49.424;10.894;2024-02-28T05:49:15;13.55;;;4.82;;
7931;SDS011;4011;49.424;10.894;2024-02-28T05:54:39;7.95;;;4.88;;
7931;SDS011;4011;49.424;10.894;2024-02-28T06:00:01;7.05;;;4.95;;
7931;SDS011;4011;49.424;10.894;2024-02-28T06:05:29;7.65;;;4.78;;
7931;SDS011;4011;49.424;10.894;2024-02-28T06:10:52;7.75;;;5.43;;
7931;SDS011;4011;49.424;10.894;2024-02-28T06:16:15;8.20;;;4.57;;
7931;SDS011;4011;49.424;10.894;2024-02-28T06:21:37;6.95;;;4.28;;
7931;SDS011;4011;49.424;10.894;2024-02-28T06:27:01;9.38;;;4.80;;
7931;SDS011;4011;49.424;10.894;2024-02-28T06:32:23;7.55;;;4.43;;
7931;SDS011;4011;49.424;10.894;2024-02-28T06:37:44;7.28;;;4.68;;
7931;SDS011;4011;49.424;10.894;2024-02-28T06:43:11;6.22;;;4.45;;
7931;SDS011;4011;49.424;10.894;2024-02-28T06:48:33;7.22;;;4.45;;
7931;SDS011;4011;49.424;10.894;2024-02-28T06:53:54;8.77;;;4.88;;
7931;SDS011;4011;49.424;10.894;2024-02-28T06:59:17;6.78;;;4.40;;
7931;SDS011;4011;49.424;10.894;2024-02-28T07:04:39;7.20;;;4.93;;
7931;SDS011;4011;49.424;10.894;2024-02-28T07:10:02;7.45;;;5.30;;
7931;SDS011;4011;49.424;10.894;2024-02-28T07:15:26;7.65;;;5.80;;
7931;SDS011;4011;49.424;10.894;2024-02-28T07:20:47;8.00;;;5.40;;
7931;SDS011;4011;49.424;10.894;2024-02-28T07:26:13;7.38;;;5.25;;
7931;SDS011;4011;49.424;10.894;2024-02-28T07:31:36;6.88;;;5.30;;
7931;SDS011;4011;49.424;10.894;2024-02-28T07:36:58;7.28;;;5.20;;
7931;SDS011;4011;49.424;10.894;2024-02-28T07:42:19;7.22;;;5.38;;
7931;SDS011;4011;49.424;10.894;2024-02-28T07:47:42;6.60;;;4.93;;
7931;SDS011;4011;49.424;10.894;2024-02-28T07:53:03;7.85;;;5.50;;
7931;SDS011;4011;49.424;10.894;2024-02-28T07:58:25;6.97;;;5.25;;
7931;SDS011;4011;49.424;10.894;2024-02-28T08:03:48;6.43;;;5.10;;
7931;SDS011;4011;49.424;10.894;2024-02-28T08:09:09;6.90;;;5.18;;
7931;SDS011;4011;49.424;10.894;2024-02-28T08:14:32;7.25;;;4.70;;
7931;SDS011;4011;49.424;10.894;2024-02-28T08:19:55;7.22;;;5.25;;
7931;SDS011;4011;49.424;10.894;2024-02-28T08:25:16;7.30;;;4.90;;
7931;SDS011;4011;49.424;10.894;2024-02-28T08:30:38;6.90;;;4.90;;
7931;SDS011;4011;49.424;10.894;2024-02-28T08:36:02;7.18;;;4.78;;
7931;SDS011;4011;49.424;10.894;2024-02-28T08:41:23;6.35;;;4.90;;
7931;SDS011;4011;49.424;10.894;2024-02-28T08:46:46;6.43;;;4.90;;
7931;SDS011;4011;49.424;10.894;2024-02-28T08:52:09;6.60;;;4.53;;
7931;SDS011;4011;49.424;10.894;2024-02-28T08:57:30;6.38;;;4.63;;
7931;SDS011;4011;49.424;10.894;2024-02-28T09:02:51;6.85;;;4.65;;
7931;SDS011;4011;49.424;10.894;2024-02-28T09:08:15;6.15;;;4.43;;
7931;SDS011;4011;49.424;10.894;2024-02-28T09:13:36;6.20;;;4.82;;
7931;SDS011;4011;49.424;10.894;2024-02-28T09:18:57;8.05;;;5.57;;
7931;SDS011;4011;49.424;10.894;2024-02-28T09:24:20;7.20;;;5.03;;
7931;SDS011;4011;49.424;10.894;2024-02-28T09:29:42;6.57;;;5.32;;
7931;SDS011;4011;49.424;10.894;2024-02-28T09:35:03;6.60;;;5.45;;
7931;SDS011;4011;49.424;10.894;2024-02-28T09:40:26;7.00;;;5.25;;
7931;SDS011;4011;49.424;10.894;2024-02-28T09:45:48;6.10;;;4.97;;
7931;SDS011;4011;49.424;10.894;2024-02-28T09:51:10;6.78;;;5.20;;
7931;SDS011;4011;49.424;10.894;2024-02-28T09:56:34;6.25;;;4.72;;
7931;SDS011;4011;49.424;10.894;2024-02-28T10:01:56;7.03;;;4.85;;
7931;SDS011;4011;49.424;10.894;2024-02-28T10:07:18;6.43;;;4.95;;
7931;SDS011;4011;49.424;10.894;2024-02-28T10:12:43;6.63;;;4.53;;
7931;SDS011;4011;49.424;10.894;2024-02-28T10:18:05;6.32;;;4.80;;
7931;SDS011;4011;49.424;10.894;2024-02-28T10:23:26;6.22;;;4.45;;
7931;SDS011;4011;49.424;10.894;2024-02-28T10:28:50;7.22;;;5.15;;
7931;SDS011;4011;49.424;10.894;2024-02-28T10:34:12;6.30;;;5.00;;
7931;SDS011;4011;49.424;10.894;2024-02-28T10:39:35;7.18;;;4.82;;
7931;SDS011;4011;49.424;10.894;2024-02-28T10:44:59;6.82;;;4.60;;
7931;SDS011;4011;49.424;10.894;2024-02-28T10:50:22;5.97;;;4.55;;
7931;SDS011;4011;49.424;10.894;2024-02-28T10:55:44;5.78;;;4.38;;
7931;SDS011;4011;49.424;10.894;2024-02-28T11:01:09;6.53;;;4.63;;
7931;SDS011;4011;49.424;10.894;2024-02-28T11:06:30;6.13;;;4.38;;
7931;SDS011;4011;49.424;10.894;2024-02-28T11:11:52;7.10;;;4.78;;
7931;SDS011;4011;49.424;10.894;2024-02-28T11:17:15;6.20;;;4.03;;
7931;SDS011;4011;49.424;10.894;2024-02-28T11:22:47;5.35;;;4.00;;
7931;SDS011;4011;49.424;10.894;2024-02-28T11:28:08;5.30;;;4.20;;
7931;SDS011;4011;49.424;10.894;2024-02-28T11:33:31;5.35;;;3.95;;
7931;SDS011;4011;49.424;10.894;2024-02-28T11:38:53;6.05;;;3.78;;
7931;SDS011;4011;49.424;10.894;2024-02-28T11:44:15;5.95;;;4.22;;
7931;SDS011;4011;49.424;10.894;2024-02-28T11:49:38;6.53;;;4.07;;
7931;SDS011;4011;49.424;10.894;2024-02-28T11:55:00;5.22;;;3.83;;
7931;SDS011;4011;49.424;10.894;2024-02-28T12:00:22;5.00;;;3.65;;
7931;SDS011;4011;49.424;10.894;2024-02-28T12:05:45;5.43;;;3.67;;
7931;SDS011;4011;49.424;10.894;2024-02-28T12:11:06;5.25;;;3.65;;
7931;SDS011;4011;49.424;10.894;2024-02-28T12:16:30;5.78;;;3.78;;
7931;SDS011;4011;49.424;10.894;2024-02-28T12:21:53;5.43;;;3.63;;
7931;SDS011;4011;49.424;10.894;2024-02-28T12:27:14;5.93;;;3.72;;
7931;SDS011;4011;49.424;10.894;2024-02-28T12:32:36;5.03;;;3.70;;
7931;SDS011;4011;49.424;10.894;2024-02-28T12:37:59;4.75;;;3.45;;
7931;SDS011;4011;49.424;10.894;2024-02-28T12:43:20;5.65;;;3.58;;
7931;SDS011;4011;49.424;10.894;2024-02-28T12:48:42;4.78;;;3.42;;
7931;SDS011;4011;49.424;10.894;2024-02-28T12:54:05;5.13;;;3.40;;
7931;SDS011;4011;49.424;10.894;2024-02-28T12:59:28;5.20;;;3.78;;
7931;SDS011;4011;49.424;10.894;2024-02-28T13:04:49;5.28;;;3.40;;
7931;SDS011;4011;49.424;10.894;2024-02-28T13:10:12;6.03;;;3.60;;
7931;SDS011;4011;49.424;10.894;2024-02-28T13:15:34;5.18;;;3.40;;
7931;SDS011;4011;49.424;10.894;2024-02-28T13:20:55;4.93;;;3.60;;
7931;SDS011;4011;49.424;10.894;2024-02-28T13:26:18;4.82;;;3.50;;
7931;SDS011;4011;49.424;10.894;2024-02-28T13:31:40;5.55;;;3.65;;
7931;SDS011;4011;49.424;10.894;2024-02-28T13:37:02;5.30;;;3.50;;
7931;SDS011;4011;49.424;10.894;2024-02-28T13:42:25;5.05;;;3.50;;
7931;SDS011;4011;49.424;10.894;2024-02-28T13:47:46;6.15;;;3.60;;
7931;SDS011;4011;49.424;10.894;2024-02-28T13:53:08;5.15;;;3.53;;
7931;SDS011;4011;49.424;10.894;2024-02-28T13:58:31;5.70;;;3.88;;
7931;SDS011;4011;49.424;10.894;2024-02-28T14:03:52;5.18;;;3.60;;
7931;SDS011;4011;49.424;10.894;2024-02-28T14:09:14;4.63;;;3.40;;
7931;SDS011;4011;49.424;10.894;2024-02-28T14:14:37;5.15;;;3.53;;
7931;SDS011;4011;49.424;10.894;2024-02-28T14:19:59;5.57;;;3.78;;
7931;SDS011;4011;49.424;10.894;2024-02-28T14:25:20;6.07;;;3.78;;
7931;SDS011;4011;49.424;10.894;2024-02-28T14:30:43;5.10;;;3.65;;
7931;SDS011;4011;49.424;10.894;2024-02-28T14:36:06;5.38;;;3.72;;
7931;SDS011;4011;49.424;10.894;2024-02-28T14:41:27;5.28;;;3.65;;
7931;SDS011;4011;49.424;10.894;2024-02-28T14:46:50;5.05;;;3.60;;
7931;SDS011;4011;49.424;10.894;2024-02-28T14:52:12;5.78;;;3.70;;
7931;SDS011;4011;49.424;10.894;2024-02-28T14:57:34;4.85;;;3.67;;
7931;SDS011;4011;49.424;10.894;2024-02-28T15:02:57;5.18;;;3.33;;
7931;SDS011;4011;49.424;10.894;2024-02-28T15:08:19;5.80;;;3.88;;
7931;SDS011;4011;49.424;10.894;2024-02-28T15:13:40;5.18;;;3.40;;
7931;SDS011;4011;49.424;10.894;2024-02-28T15:19:03;5.38;;;3.67;;
7931;SDS011;4011;49.424;10.894;2024-02-28T15:24:24;5.38;;;3.65;;
7931;SDS011;4011;49.424;10.894;2024-02-28T15:29:46;6.75;;;3.85;;
7931;SDS011;4011;49.424;10.894;2024-02-28T15:35:09;5.90;;;3.60;;
7931;SDS011;4011;49.424;10.894;2024-02-28T15:40:31;7.22;;;3.75;;
7931;SDS011;4011;49.424;10.894;2024-02-28T15:45:52;5.90;;;3.85;;
7931;SDS011;4011;49.424;10.894;2024-02-28T15:51:16;6.50;;;3.80;;
7931;SDS011;4011;49.424;10.894;2024-02-28T15:56:37;6.00;;;3.92;;
7931;SDS011;4011;49.424;10.894;2024-02-28T16:02:00;5.85;;;3.42;;
7931;SDS011;4011;49.424;10.894;2024-02-28T16:07:22;4.90;;;3.60;;
7931;SDS011;4011;49.424;10.894;2024-02-28T16:12:44;5.10;;;3.50;;
7931;SDS011;4011;49.424;10.894;2024-02-28T16:18:06;5.85;;;3.60;;
7931;SDS011;4011;49.424;10.894;2024-02-28T16:23:29;6.05;;;3.40;;
7931;SDS011;4011;49.424;10.894;2024-02-28T16:28:51;5.50;;;3.42;;
7931;SDS011;4011;49.424;10.894;2024-02-28T16:34:12;6.13;;;3.30;;
7931;SDS011;4011;49.424;10.894;2024-02-28T16:39:35;4.82;;;3.33;;
7931;SDS011;4011;49.424;10.894;2024-02-28T16:44:57;4.70;;;3.25;;
7931;SDS011;4011;49.424;10.894;2024-02-28T16:50:18;5.57;;;3.28;;
7931;SDS011;4011;49.424;10.894;2024-02-28T16:55:41;5.35;;;3.55;;
7931;SDS011;4011;49.424;10.894;2024-02-28T17:01:02;5.18;;;3.30;;
7931;SDS011;4011;49.424;10.894;2024-02-28T17:06:25;5.03;;;3.33;;
7931;SDS011;4011;49.424;10.894;2024-02-28T17:11:48;6.35;;;3.63;;
7931;SDS011;4011;49.424;10.894;2024-02-28T17:17:09;6.22;;;3.80;;
7931;SDS011;4011;49.424;10.894;2024-02-28T17:22:32;4.97;;;3.50;;
7931;SDS011;4011;49.424;10.894;2024-02-28T17:27:55;5.07;;;3.50;;
7931;SDS011;4011;49.424;10.894;2024-02-28T17:33:16;5.07;;;3.30;;
7931;SDS011;4011;49.424;10.894;2024-02-28T17:38:38;4.93;;;3.30;;
7931;SDS011;4011;49.424;10.894;2024-02-28T17:44:00;5.03;;;3.53;;
7931;SDS011;4011;49.424;10.894;2024-02-28T17:49:22;6.13;;;3.20;;
7931;SDS011;4011;49.424;10.894;2024-02-28T17:54:44;4.82;;;3.38;;
7931;SDS011;4011;49.424;10.894;2024-02-28T18:00:07;5.30;;;3.72;;
7931;SDS011;4011;49.424;10.894;2024-02-28T18:05:32;5.38;;;3.55;;
7931;SDS011;4011;49.424;10.894;2024-02-28T18:10:53;5.20;;;3.70;;
7931;SDS011;4011;49.424;10.894;2024-02-28T18:16:16;5.95;;;3.67;;
7931;SDS011;4011;49.424;10.894;2024-02-28T18:21:39;6.60;;;3.70;;
7931;SDS011;4011;49.424;10.894;2024-02-28T18:27:00;5.03;;;3.17;;
7931;SDS011;4011;49.424;10.894;2024-02-28T18:32:23;4.38;;;3.10;;
7931;SDS011;4011;49.424;10.894;2024-02-28T18:37:45;5.03;;;3.47;;
7931;SDS011;4011;49.424;10.894;2024-02-28T18:43:07;5.40;;;3.80;;
7931;SDS011;4011;49.424;10.894;2024-02-28T18:48:30;5.28;;;3.58;;
7931;SDS011;4011;49.424;10.894;2024-02-28T18:53:52;10.00;;;4.05;;
7931;SDS011;4011;49.424;10.894;2024-02-28T18:59:13;6.50;;;4.05;;
7931;SDS011;4011;49.424;10.894;2024-02-28T19:04:36;8.50;;;3.90;;
7931;SDS011;4011;49.424;10.894;2024-02-28T19:09:58;5.30;;;3.40;;
7931;SDS011;4011;49.424;10.894;2024-02-28T19:15:19;6.60;;;3.58;;
7931;SDS011;4011;49.424;10.894;2024-02-28T19:20:42;6.05;;;3.60;;
7931;SDS011;4011;49.424;10.894;2024-02-28T19:26:04;5.43;;;3.55;;
7931;SDS011;4011;49.424;10.894;2024-02-28T19:31:26;5.82;;;3.90;;
7931;SDS011;4011;49.424;10.894;2024-02-28T19:36:50;5.65;;;4.15;;
7931;SDS011;4011;49.424;10.894;2024-02-28T19:42:11;6.45;;;4.20;;
7931;SDS011;4011;49.424;10.894;2024-02-28T19:47:34;5.97;;;4.03;;
7931;SDS011;4011;49.424;10.894;2024-02-28T19:52:58;5.80;;;3.95;;
7931;SDS011;4011;49.424;10.894;2024-02-28T19:58:20;6.72;;;4.25;;
7931;SDS011;4011;49.424;10.894;2024-02-28T20:03:42;7.93;;;4.00;;
7931;SDS011;4011;49.424;10.894;2024-02-28T20:09:05;6.65;;;4.20;;
7931;SDS011;4011;49.424;10.894;2024-02-28T20:14:27;6.00;;;4.13;;
7931;SDS011;4011;49.424;10.894;2024-02-28T20:19:48;6.15;;;4.43;;
7931;SDS011;4011;49.424;10.894;2024-02-28T20:25:11;6.32;;;4.30;;
7931;SDS011;4011;49.424;10.894;2024-02-28T20:30:33;5.75;;;4.35;;
7931;SDS011;4011;49.424;10.894;2024-02-28T20:35:55;6.45;;;4.45;;
7931;SDS011;4011;49.424;10.894;2024-02-28T20:41:18;6.93;;;4.15;;
7931;SDS011;4011;49.424;10.894;2024-02-28T20:46:40;6.47;;;4.40;;
7931;SDS011;4011;49.424;10.894;2024-02-28T20:52:01;6.40;;;4.45;;
7931;SDS011;4011;49.424;10.894;2024-02-28T20:57:24;6.28;;;4.60;;
7931;SDS011;4011;49.424;10.894;2024-02-28T21:02:47;5.82;;;4.45;;
7931;SDS011;4011;49.424;10.894;2024-02-28T21:08:08;7.18;;;4.35;;
7931;SDS011;4011;49.424;10.894;2024-02-28T21:13:32;6.13;;;4.78;;
7931;SDS011;4011;49.424;10.894;2024-02-28T21:18:56;7.32;;;4.82;;
7931;SDS011;4011;49.424;10.894;2024-02-28T21:24:18;6.53;;;4.55;;
7931;SDS011;4011;49.424;10.894;2024-02-28T21:29:41;6.03;;;4.65;;
7931;SDS011;4011;49.424;10.894;2024-02-28T21:35:02;5.57;;;4.28;;
7931;SDS011;4011;49.424;10.894;2024-02-28T21:40:29;5.80;;;4.32;;
7931;SDS011;4011;49.424;10.894;2024-02-28T21:45:53;5.90;;;4.15;;
7931;SDS011;4011;49.424;10.894;2024-02-28T21:51:14;7.28;;;4.72;;
7931;SDS011;4011;49.424;10.894;2024-02-28T21:56:37;5.18;;;4.15;;
7931;SDS011;4011;49.424;10.894;2024-02-28T22:02:02;6.40;;;4.90;;
7931;SDS011;4011;49.424;10.894;2024-02-28T22:07:23;6.68;;;5.20;;
7931;SDS011;4011;49.424;10.894;2024-02-28T22:12:45;7.35;;;5.07;;
7931;SDS011;4011;49.424;10.894;2024-02-28T22:18:08;6.22;;;4.57;;
7931;SDS011;4011;49.424;10.894;2024-02-28T22:23:29;6.65;;;4.78;;
7931;SDS011;4011;49.424;10.894;2024-02-28T22:28:51;5.63;;;4.32;;
7931;SDS011;4011;49.424;10.894;2024-02-28T22:34:14;5.68;;;4.38;;
7931;SDS011;4011;49.424;10.894;2024-02-28T22:39:36;6.78;;;4.40;;
7931;SDS011;4011;49.424;10.894;2024-02-28T22:44:58;5.88;;;4.25;;
7931;SDS011;4011;49.424;10.894;2024-02-28T22:50:22;5.78;;;4.70;;
7931;SDS011;4011;49.424;10.894;2024-02-28T22:55:43;6.60;;;4.80;;
7931;SDS011;4011;49.424;10.894;2024-02-28T23:01:05;7.07;;;4.70;;
7931;SDS011;4011;49.424;10.894;2024-02-28T23:06:28;7.55;;;4.53;;
7931;SDS011;4011;49.424;10.894;2024-02-28T23:11:49;6.68;;;4.75;;
7931;SDS011;4011;49.424;10.894;2024-02-28T23:17:10;5.95;;;4.78;;
7931;SDS011;4011;49.424;10.894;2024-02-28T23:22:33;7.07;;;4.65;;
7931;SDS011;4011;49.424;10.894;2024-02-28T23:27:55;5.70;;;4.43;;
7931;SDS011;4011;49.424;10.894;2024-02-28T23:33:17;5.80;;;4.68;;
7931;SDS011;4011;49.424;10.894;2024-02-28T23:38:40;6.13;;;4.82;;
7931;SDS011;4011;49.424;10.894;2024-02-28T23:44:01;6.70;;;4.60;;
7931;SDS011;4011;49.424;10.894;2024-02-28T23:49:22;6.45;;;5.07;;
7931;SDS011;4011;49.424;10.894;2024-02-28T23:54:45;6.28;;;4.63;;
